Аэропорт: Псков. Псков

ICAO: ULOO

METAR:
2020-10-23 11:30:00
ULOO 231130Z 22005MPS 9999 -SHRA SCT021CB BKN032 13/09 Q0999 R19/290055 NOSIG RMK QFE745
METAR:
2020-10-23 08:00:00
TAF ULOO 230800Z 2309/2318 22005G10MPS 6000 BKN016 BKN020 TEMPO 2309/2316 25008G13MPS 3100 -SHRA BKN011 BKN020CB BECMG 2316/2317 26005G10MPS TEMPO 2316/2318 3100 -SHRA BR BKN011 BKN020CB